createdAt,value
2023-03-07T00:00:13.421Z,5.64
2023-03-07T00:02:42.072Z,5.70
2023-03-07T00:05:12.610Z,5.72
2023-03-07T00:07:43.455Z,5.63
2023-03-07T00:10:12.867Z,5.67
2023-03-07T00:12:41.059Z,5.66
2023-03-07T00:15:10.462Z,5.51
2023-03-07T00:17:39.339Z,5.50
2023-03-07T00:20:11.221Z,5.61
2023-03-07T00:22:39.562Z,5.64
2023-03-07T00:25:10.519Z,5.71
2023-03-07T00:27:38.839Z,5.82
2023-03-07T00:30:08.090Z,5.69
2023-03-07T00:32:36.345Z,5.70
2023-03-07T00:35:04.831Z,5.39
2023-03-07T00:37:33.049Z,5.48
2023-03-07T00:40:01.322Z,5.56
2023-03-07T00:42:31.049Z,5.56
2023-03-07T00:44:59.181Z,5.52
2023-03-07T00:47:27.969Z,5.62
2023-03-07T00:49:56.748Z,5.56
2023-03-07T00:52:24.979Z,5.58
2023-03-07T00:54:53.470Z,5.83
2023-03-07T00:57:21.880Z,5.74
2023-03-07T00:59:51.461Z,5.83
2023-03-07T01:02:20.143Z,5.91
2023-03-07T01:04:48.497Z,5.82
2023-03-07T01:07:17.174Z,5.99
2023-03-07T01:09:47.250Z,5.89
2023-03-07T01:12:16.381Z,5.89
2023-03-07T01:14:44.519Z,5.98
2023-03-07T01:17:14.004Z,6.04
2023-03-07T01:19:41.880Z,6.03
2023-03-07T01:22:09.976Z,6.17
2023-03-07T01:24:38.108Z,6.19
2023-03-07T01:27:06.718Z,6.17
2023-03-07T01:29:34.926Z,6.29
2023-03-07T01:32:03.466Z,6.17
2023-03-07T01:34:33.593Z,6.09
2023-03-07T01:37:01.955Z,6.00
2023-03-07T01:39:31.010Z,5.91
2023-03-07T01:42:03.686Z,5.96
2023-03-07T01:44:52.555Z,6.00
2023-03-07T01:47:20.878Z,5.63
2023-03-07T01:49:56.626Z,5.61
2023-03-07T01:52:29.394Z,5.52
2023-03-07T01:55:04.456Z,5.50
2023-03-07T01:57:35.697Z,5.63
2023-03-07T02:00:10.864Z,5.61
2023-03-07T02:02:44.975Z,5.61
2023-03-07T02:05:23.423Z,5.60
2023-03-07T02:07:53.852Z,5.53
2023-03-07T02:10:27.688Z,5.60
2023-03-07T02:12:56.270Z,5.42
2023-03-07T02:15:24.703Z,5.53
2023-03-07T02:17:53.740Z,5.46
2023-03-07T02:20:37.463Z,5.61
2023-03-07T02:23:13.641Z,5.52
2023-03-07T02:25:46.145Z,5.52
2023-03-07T02:28:19.214Z,5.56
2023-03-07T02:30:56.560Z,5.56
2023-03-07T02:33:25.960Z,5.50
2023-03-07T02:36:06.951Z,5.55
2023-03-07T02:38:42.635Z,5.68
2023-03-07T02:41:13.417Z,5.60
2023-03-07T02:43:43.751Z,5.51
2023-03-07T02:46:12.873Z,5.48
2023-03-07T02:48:41.708Z,5.41
2023-03-07T02:51:10.289Z,5.34
2023-03-07T02:53:39.462Z,5.12
2023-03-07T02:56:08.478Z,5.33
2023-03-07T02:58:36.587Z,5.21
2023-03-07T03:01:06.684Z,5.34
2023-03-07T03:03:34.857Z,5.42
2023-03-07T03:06:04.079Z,5.33
2023-03-07T03:08:33.194Z,5.13
2023-03-07T03:11:01.859Z,5.12
2023-03-07T03:13:30.958Z,5.10
2023-03-07T03:15:59.940Z,5.07
2023-03-07T03:18:31.105Z,4.95
2023-03-07T03:21:01.391Z,4.96
2023-03-07T03:23:29.763Z,5.27
2023-03-07T03:26:00.149Z,5.30
2023-03-07T03:28:31.650Z,5.26
2023-03-07T03:31:01.423Z,5.16
2023-03-07T03:33:33.089Z,5.29
2023-03-07T03:36:06.514Z,5.20
2023-03-07T03:38:36.068Z,5.19
2023-03-07T03:41:08.341Z,5.07
2023-03-07T03:43:38.845Z,5.01
2023-03-07T03:46:08.032Z,4.85
2023-03-07T03:48:39.369Z,5.07
2023-03-07T03:51:10.555Z,4.85
2023-03-07T03:53:40.711Z,4.99
2023-03-07T03:56:12.551Z,5.32
2023-03-07T03:58:42.085Z,5.17
2023-03-07T04:01:13.149Z,5.06
2023-03-07T04:03:44.962Z,5.12
2023-03-07T04:06:15.736Z,5.21
2023-03-07T04:08:44.512Z,4.91
2023-03-07T04:11:13.575Z,4.83
2023-03-07T04:13:41.903Z,4.82
2023-03-07T04:16:10.482Z,4.76
2023-03-07T04:18:40.212Z,4.84
2023-03-07T04:21:11.031Z,4.67
2023-03-07T04:23:40.007Z,4.81
2023-03-07T04:26:09.523Z,4.86
2023-03-07T04:28:46.393Z,4.97
2023-03-07T04:31:21.114Z,4.93
2023-03-07T04:33:50.334Z,4.92
2023-03-07T04:36:20.572Z,5.07
2023-03-07T04:38:50.120Z,5.15
2023-03-07T04:41:21.206Z,4.94
2023-03-07T04:43:52.596Z,5.14
2023-03-07T04:46:21.859Z,5.19
2023-03-07T04:48:50.602Z,4.95
2023-03-07T04:51:20.808Z,5.03
2023-03-07T04:53:50.787Z,4.97
2023-03-07T04:56:19.300Z,5.01
2023-03-07T04:58:48.967Z,4.76
2023-03-07T05:01:19.789Z,4.83
2023-03-07T05:03:49.075Z,4.90
2023-03-07T05:06:20.580Z,4.96
2023-03-07T05:08:51.621Z,4.77
2023-03-07T05:11:19.987Z,4.86
2023-03-07T05:13:48.784Z,4.67
2023-03-07T05:16:20.483Z,4.73
2023-03-07T05:18:49.740Z,4.86
2023-03-07T05:21:18.276Z,5.03
2023-03-07T05:23:47.974Z,5.14
2023-03-07T05:26:16.586Z,5.24
2023-03-07T05:28:44.836Z,5.18
2023-03-07T05:31:13.302Z,5.15
2023-03-07T05:33:42.769Z,4.76
2023-03-07T05:36:13.400Z,4.69
2023-03-07T05:38:44.902Z,4.74
2023-03-07T05:41:14.711Z,4.87
2023-03-07T05:43:44.990Z,4.92
2023-03-07T05:46:13.672Z,4.83
2023-03-07T05:48:41.980Z,4.79
2023-03-07T05:51:10.591Z,4.76
2023-03-07T05:53:38.953Z,4.61
2023-03-07T05:56:08.921Z,4.78
2023-03-07T05:58:39.836Z,4.91
2023-03-07T06:01:10.320Z,4.77
2023-03-07T06:03:38.690Z,4.92
2023-03-07T06:06:08.545Z,4.82
2023-03-07T06:08:36.620Z,4.97
2023-03-07T06:11:06.930Z,5.09
2023-03-07T06:13:40.207Z,5.26
2023-03-07T06:16:10.301Z,5.46
2023-03-07T06:18:41.315Z,5.51
2023-03-07T06:21:11.673Z,5.60
2023-03-07T06:23:44.539Z,5.73
2023-03-07T06:26:15.997Z,5.72
2023-03-07T06:28:49.366Z,5.62
2023-03-07T06:31:20.342Z,5.40
2023-03-07T06:33:50.552Z,5.52
2023-03-07T06:36:21.804Z,5.57
2023-03-07T06:38:57.280Z,5.59
2023-03-07T06:43:43.045Z,5.61
2023-03-07T06:46:12.068Z,5.42
2023-03-07T06:48:43.774Z,5.17
2023-03-07T06:51:17.544Z,5.05
2023-03-07T06:53:48.595Z,5.09
2023-03-07T06:56:18.030Z,5.26
2023-03-07T06:58:48.736Z,5.35
2023-03-07T07:01:20.107Z,5.24
2023-03-07T07:03:52.711Z,5.34
2023-03-07T07:06:22.021Z,5.25
2023-03-07T07:08:55.596Z,5.20
2023-03-07T07:11:26.625Z,5.22
2023-03-07T07:13:57.639Z,5.24
2023-03-07T07:16:26.321Z,5.35
2023-03-07T07:18:55.137Z,5.32
2023-03-07T07:21:24.110Z,5.40
2023-03-07T07:23:53.635Z,5.30
2023-03-07T07:26:22.530Z,5.09
2023-03-07T07:28:52.034Z,5.23
2023-03-07T07:31:23.112Z,5.25
2023-03-07T07:33:52.338Z,5.07
2023-03-07T07:36:24.747Z,5.23
2023-03-07T07:38:55.908Z,5.27
2023-03-07T07:41:25.374Z,5.44
2023-03-07T07:43:57.867Z,5.46
2023-03-07T07:46:38.536Z,5.40
2023-03-07T07:49:10.055Z,5.40
2023-03-07T07:51:41.239Z,5.48
2023-03-07T07:54:10.918Z,5.30
2023-03-07T07:56:40.106Z,5.15
2023-03-07T07:59:09.616Z,5.22
2023-03-07T08:01:40.310Z,5.27
2023-03-07T08:04:10.161Z,5.29
2023-03-07T08:06:41.513Z,5.25
2023-03-07T08:09:10.100Z,5.48
2023-03-07T08:11:38.524Z,5.52
2023-03-07T08:14:09.433Z,5.48
2023-03-07T08:16:40.913Z,5.35
2023-03-07T08:19:10.868Z,5.36
2023-03-07T08:21:39.367Z,5.38
2023-03-07T08:24:08.935Z,5.34
2023-03-07T08:26:38.990Z,5.52
2023-03-07T08:29:09.362Z,5.42
2023-03-07T08:31:40.260Z,5.43
2023-03-07T08:34:08.887Z,5.54
2023-03-07T08:36:37.019Z,5.61
2023-03-07T08:39:06.421Z,5.49
2023-03-07T08:41:34.893Z,5.43
2023-03-07T08:44:04.220Z,5.34
2023-03-07T08:46:32.412Z,5.46
2023-03-07T08:49:02.372Z,5.38
2023-03-07T08:51:31.253Z,5.21
2023-03-07T08:54:00.721Z,5.04
2023-03-07T08:56:30.366Z,4.93
2023-03-07T08:58:59.308Z,4.95
2023-03-07T09:01:28.558Z,5.00
2023-03-07T09:03:57.824Z,5.02
2023-03-07T09:06:28.737Z,4.81
2023-03-07T09:08:58.892Z,4.68
2023-03-07T09:11:29.004Z,4.91
2023-03-07T09:13:58.589Z,5.14
2023-03-07T09:16:27.622Z,5.19
2023-03-07T09:18:56.606Z,5.18
2023-03-07T09:21:30.822Z,5.28
2023-03-07T09:23:59.959Z,5.48
2023-03-07T09:26:28.816Z,5.33
2023-03-07T09:29:00.039Z,5.36
2023-03-07T09:31:28.359Z,5.56
2023-03-07T09:33:58.566Z,5.51
2023-03-07T09:36:28.964Z,5.53
2023-03-07T09:38:58.337Z,5.52
2023-03-07T09:41:54.675Z,5.29
2023-03-07T09:44:39.065Z,5.16
2023-03-07T09:48:00.242Z,5.29
2023-03-07T09:50:37.279Z,5.09
2023-03-07T09:53:14.404Z,5.06
2023-03-07T09:55:44.365Z,5.03
2023-03-07T09:58:17.546Z,4.81
2023-03-07T10:00:47.554Z,4.96
2023-03-07T10:03:28.767Z,5.18
2023-03-07T10:06:01.409Z,5.05
2023-03-07T10:08:35.052Z,5.13
2023-03-07T10:11:18.533Z,5.24
2023-03-07T10:14:01.116Z,5.47
2023-03-07T10:16:37.781Z,5.52
2023-03-07T10:19:16.020Z,5.61
2023-03-07T10:21:53.595Z,5.43
2023-03-07T10:24:52.527Z,5.42
2023-03-07T10:27:26.953Z,5.36
2023-03-07T10:29:57.665Z,5.47
2023-03-07T10:32:34.126Z,5.58
2023-03-07T10:35:17.150Z,5.66
2023-03-07T10:37:53.685Z,5.65
2023-03-07T10:40:27.655Z,5.72
2023-03-07T10:42:58.359Z,5.72
2023-03-07T10:45:31.511Z,5.84
2023-03-07T10:48:01.310Z,5.92
2023-03-07T10:50:39.929Z,5.82
2023-03-07T10:53:21.650Z,5.89
2023-03-07T10:55:53.949Z,5.95
2023-03-07T10:58:25.029Z,6.11
2023-03-07T11:01:20.331Z,6.19
2023-03-07T11:03:55.428Z,6.26
2023-03-07T11:06:34.919Z,6.31
2023-03-07T11:09:17.287Z,6.43
2023-03-07T11:11:56.418Z,6.65
2023-03-07T11:14:26.263Z,6.39
2023-03-07T11:16:57.591Z,6.33
2023-03-07T11:19:42.272Z,6.33
2023-03-07T11:22:25.007Z,6.40
2023-03-07T11:25:01.571Z,6.54
2023-03-07T11:27:40.650Z,6.45
2023-03-07T11:30:19.773Z,5.87
2023-03-07T11:33:09.396Z,5.66
2023-03-07T11:36:00.325Z,5.64
2023-03-07T11:38:37.328Z,5.71
2023-03-07T11:41:12.184Z,5.71
2023-03-07T11:44:00.181Z,5.77
2023-03-07T11:46:40.192Z,5.85
2023-03-07T11:49:27.404Z,5.84
2023-03-07T11:52:10.428Z,5.75
2023-03-07T11:54:50.686Z,5.94
2023-03-07T11:57:31.734Z,6.01
2023-03-07T12:00:21.341Z,5.85
2023-03-07T12:03:20.006Z,5.98
2023-03-07T12:06:07.898Z,6.06
2023-03-07T12:08:52.465Z,6.05
2023-03-07T12:11:47.417Z,6.16
2023-03-07T12:14:24.555Z,6.37
2023-03-07T12:17:07.939Z,6.60
2023-03-07T12:19:55.377Z,7.03
2023-03-07T12:22:29.500Z,7.17
2023-03-07T12:25:09.854Z,7.17
2023-03-07T12:27:43.453Z,7.48
2023-03-07T12:30:20.100Z,7.34
2023-03-07T12:32:51.887Z,7.41
2023-03-07T12:35:28.876Z,7.30
2023-03-07T12:38:06.845Z,7.44
2023-03-07T12:40:42.017Z,7.51
2023-03-07T12:43:21.041Z,7.82
2023-03-07T12:45:57.178Z,7.93
2023-03-07T12:48:39.711Z,8.08
2023-03-07T12:51:18.221Z,8.20
2023-03-07T12:53:51.189Z,8.42
2023-03-07T12:56:22.692Z,8.33
2023-03-07T12:58:56.154Z,8.49
2023-03-07T13:01:29.061Z,8.28
2023-03-07T13:04:08.542Z,8.07
2023-03-07T13:06:42.056Z,8.05
2023-03-07T13:09:19.592Z,8.05
2023-03-07T13:12:25.544Z,7.88
2023-03-07T13:14:55.150Z,7.67
2023-03-07T13:18:01.901Z,7.88
2023-03-07T13:20:44.748Z,7.96
2023-03-07T13:23:28.569Z,8.09
2023-03-07T13:26:13.472Z,8.45
2023-03-07T13:28:52.940Z,8.52
2023-03-07T13:31:39.256Z,8.05
2023-03-07T13:34:46.869Z,7.94
2023-03-07T13:37:57.205Z,7.73
2023-03-07T13:40:58.611Z,7.51
2023-03-07T13:43:58.845Z,7.41
2023-03-07T13:47:01.678Z,7.57
2023-03-07T13:49:48.759Z,7.49
2023-03-07T13:52:40.104Z,7.40
2023-03-07T13:55:46.456Z,7.43
2023-03-07T13:58:28.464Z,7.52
2023-03-07T14:01:01.121Z,7.39
2023-03-07T14:03:34.829Z,7.34
2023-03-07T14:06:12.340Z,7.48
2023-03-07T14:08:42.147Z,7.69
2023-03-07T14:11:23.253Z,8.05
2023-03-07T14:14:21.538Z,8.06
2023-03-07T14:17:05.324Z,8.21
2023-03-07T14:19:52.714Z,8.14
2023-03-07T14:22:35.253Z,8.08
2023-03-07T14:25:39.213Z,8.21
2023-03-07T14:28:22.344Z,8.08
2023-03-07T14:30:58.665Z,8.03
2023-03-07T14:33:33.731Z,7.80
2023-03-07T14:36:03.806Z,7.58
2023-03-07T14:38:34.337Z,7.38
2023-03-07T14:41:29.465Z,7.27
2023-03-07T14:44:09.115Z,7.15
2023-03-07T14:46:59.527Z,7.11
2023-03-07T14:49:36.914Z,7.34
2023-03-07T14:52:06.778Z,7.30
2023-03-07T14:54:38.530Z,7.44
2023-03-07T14:57:22.993Z,7.32
2023-03-07T15:00:13.544Z,7.42
2023-03-07T15:02:48.808Z,7.40
2023-03-07T15:05:20.733Z,7.32
2023-03-07T15:07:49.466Z,7.19
2023-03-07T15:10:25.224Z,7.16
2023-03-07T15:12:57.905Z,6.97
2023-03-07T15:15:34.043Z,6.91
2023-03-07T15:18:08.031Z,6.77
2023-03-07T15:20:37.742Z,6.66
2023-03-07T15:23:09.551Z,6.34
2023-03-07T15:25:40.013Z,6.11
2023-03-07T15:28:19.804Z,6.18
2023-03-07T15:30:55.402Z,6.49
2023-03-07T15:33:25.934Z,6.81
2023-03-07T15:36:19.955Z,6.97
2023-03-07T15:38:50.653Z,7.10
2023-03-07T15:41:34.970Z,7.29
2023-03-07T15:44:23.304Z,7.46
2023-03-07T15:46:56.325Z,7.53
2023-03-07T15:49:27.392Z,7.61
2023-03-07T15:52:02.561Z,7.55
2023-03-07T15:54:36.321Z,7.57
2023-03-07T15:57:10.494Z,7.64
2023-03-07T15:59:45.637Z,7.68
2023-03-07T16:02:37.829Z,7.82
2023-03-07T16:05:10.079Z,7.87
2023-03-07T16:07:39.336Z,7.76
2023-03-07T16:10:10.240Z,7.70
2023-03-07T16:12:46.399Z,7.50
2023-03-07T16:15:17.667Z,7.22
2023-03-07T16:17:53.398Z,7.09
2023-03-07T16:20:24.971Z,7.14
2023-03-07T16:22:55.487Z,6.97
2023-03-07T16:25:28.469Z,6.68
2023-03-07T16:28:00.370Z,6.61
2023-03-07T16:30:34.015Z,6.46
2023-03-07T16:33:05.264Z,6.52
2023-03-07T16:35:35.813Z,6.47
2023-03-07T16:38:07.266Z,6.09
2023-03-07T16:40:38.449Z,6.07
2023-03-07T16:43:32.580Z,6.07
2023-03-07T16:46:05.623Z,5.95
2023-03-07T16:48:37.715Z,6.07
2023-03-07T16:51:08.963Z,6.16
2023-03-07T16:53:38.188Z,6.14
2023-03-07T16:56:11.570Z,6.13
2023-03-07T16:58:43.504Z,6.17
2023-03-07T17:01:17.816Z,6.09
2023-03-07T17:03:51.334Z,5.94
2023-03-07T17:06:25.427Z,5.88
2023-03-07T17:08:56.747Z,5.87
2023-03-07T17:11:29.633Z,5.91
2023-03-07T17:14:00.905Z,6.04
2023-03-07T17:16:33.215Z,6.10
2023-03-07T17:19:04.777Z,6.31
2023-03-07T17:21:34.434Z,6.16
2023-03-07T17:24:03.017Z,6.24
2023-03-07T17:26:34.358Z,6.17
2023-03-07T17:29:08.913Z,6.21
2023-03-07T17:31:39.645Z,6.11
2023-03-07T17:34:19.477Z,6.08
2023-03-07T17:36:48.541Z,5.93
2023-03-07T17:39:17.929Z,6.01
2023-03-07T17:41:47.171Z,6.13
2023-03-07T17:44:17.909Z,6.19
2023-03-07T17:46:48.004Z,6.32
2023-03-07T17:49:19.512Z,6.42
2023-03-07T17:51:49.491Z,6.51
2023-03-07T17:54:25.746Z,6.43
2023-03-07T17:57:04.728Z,6.57
2023-03-07T17:59:35.301Z,6.65
2023-03-07T18:02:05.896Z,6.70
2023-03-07T18:04:36.577Z,6.77
2023-03-07T18:07:06.611Z,6.76
2023-03-07T18:09:35.359Z,6.74
2023-03-07T18:12:05.489Z,6.72
2023-03-07T18:14:35.942Z,6.59
2023-03-07T18:17:06.857Z,6.71
2023-03-07T18:19:39.386Z,6.69
2023-03-07T18:22:08.946Z,6.70
2023-03-07T18:24:37.367Z,6.75
2023-03-07T18:27:09.040Z,6.74
2023-03-07T18:29:39.493Z,6.59
2023-03-07T18:32:09.470Z,6.62
2023-03-07T18:34:41.743Z,6.66
2023-03-07T18:37:11.574Z,6.66
2023-03-07T18:39:42.028Z,6.67
2023-03-07T18:42:12.439Z,6.72
2023-03-07T18:44:41.591Z,6.64
2023-03-07T18:47:10.966Z,6.60
2023-03-07T18:49:41.654Z,6.49
2023-03-07T18:52:10.581Z,6.37
2023-03-07T18:54:40.181Z,5.98
2023-03-07T18:57:09.911Z,5.67
2023-03-07T18:59:38.064Z,5.62
2023-03-07T19:02:07.560Z,5.78
2023-03-07T19:04:37.268Z,5.95
2023-03-07T19:07:08.385Z,6.07
2023-03-07T19:09:38.271Z,6.07
2023-03-07T19:12:08.409Z,6.05
2023-03-07T19:14:38.012Z,6.04
2023-03-07T19:17:07.711Z,6.07
2023-03-07T19:19:36.985Z,5.99
2023-03-07T19:22:07.988Z,5.93
2023-03-07T19:24:37.480Z,5.80
2023-03-07T19:27:07.054Z,5.52
2023-03-07T19:29:36.921Z,5.54
2023-03-07T19:32:08.072Z,5.64
2023-03-07T19:34:38.820Z,5.58
2023-03-07T19:37:10.401Z,5.49
2023-03-07T19:39:40.142Z,5.37
2023-03-07T19:42:08.893Z,5.15
2023-03-07T19:44:38.298Z,5.08
2023-03-07T19:47:07.159Z,4.99
2023-03-07T19:49:36.398Z,4.99
2023-03-07T19:52:06.049Z,5.02
2023-03-07T19:54:36.151Z,5.02
2023-03-07T19:57:09.341Z,4.89
2023-03-07T19:59:38.625Z,4.94
2023-03-07T20:02:09.851Z,4.70
2023-03-07T20:04:38.642Z,4.57
2023-03-07T20:07:09.702Z,4.49
2023-03-07T20:09:40.086Z,4.33
2023-03-07T20:12:11.254Z,4.59
2023-03-07T20:14:44.729Z,4.60
2023-03-07T20:17:14.767Z,4.57
2023-03-07T20:19:44.667Z,4.65
2023-03-07T20:22:13.504Z,4.59
2023-03-07T20:24:44.730Z,4.55
2023-03-07T20:27:20.350Z,4.37
2023-03-07T20:29:50.478Z,4.56
2023-03-07T20:32:20.792Z,4.55
2023-03-07T20:34:54.123Z,4.62
2023-03-07T20:37:24.616Z,4.56
2023-03-07T20:39:57.556Z,4.52
2023-03-07T20:42:27.212Z,4.62
2023-03-07T20:44:56.789Z,4.53
2023-03-07T20:47:25.394Z,4.64
2023-03-07T20:49:55.595Z,4.43
2023-03-07T20:52:25.608Z,4.20
2023-03-07T20:54:56.140Z,4.27
2023-03-07T20:57:25.390Z,4.25
2023-03-07T20:59:54.469Z,4.00
2023-03-07T21:02:23.547Z,3.81
2023-03-07T21:04:52.222Z,4.04
2023-03-07T21:07:21.428Z,3.79
2023-03-07T21:09:51.072Z,3.98
2023-03-07T21:12:21.535Z,4.08
2023-03-07T21:14:50.242Z,4.17
2023-03-07T21:17:18.839Z,4.18
2023-03-07T21:19:47.253Z,3.97
2023-03-07T21:22:16.795Z,4.05
2023-03-07T21:24:45.449Z,3.82
2023-03-07T21:27:14.197Z,3.70
2023-03-07T21:29:43.989Z,3.86
2023-03-07T21:32:13.030Z,4.02
2023-03-07T21:34:41.628Z,3.85
2023-03-07T21:37:11.486Z,3.96
2023-03-07T21:39:40.420Z,3.59
2023-03-07T21:42:10.131Z,3.79
2023-03-07T21:44:38.748Z,3.77
2023-03-07T21:47:10.094Z,3.88
2023-03-07T21:49:38.344Z,3.99
2023-03-07T21:52:09.151Z,4.04
2023-03-07T21:54:38.794Z,4.09
2023-03-07T21:57:08.752Z,3.99
2023-03-07T21:59:38.134Z,4.19
2023-03-07T22:02:09.396Z,4.22
2023-03-07T22:04:38.263Z,4.29
2023-03-07T22:07:08.470Z,4.15
2023-03-07T22:09:38.197Z,4.24
2023-03-07T22:12:09.506Z,4.17
2023-03-07T22:14:39.388Z,4.34
2023-03-07T22:17:12.213Z,4.38
2023-03-07T22:19:41.445Z,4.30
2023-03-07T22:22:11.654Z,4.36
2023-03-07T22:24:43.680Z,4.22
2023-03-07T22:27:12.039Z,4.31
2023-03-07T22:29:40.502Z,4.40
2023-03-07T22:32:10.588Z,4.40
2023-03-07T22:34:40.359Z,4.39
2023-03-07T22:37:10.357Z,4.46
2023-03-07T22:39:40.027Z,4.42
2023-03-07T22:42:09.341Z,4.36
2023-03-07T22:44:37.612Z,4.14
2023-03-07T22:47:06.704Z,4.22
2023-03-07T22:49:36.480Z,4.27
2023-03-07T22:52:05.648Z,4.21
2023-03-07T22:54:39.203Z,4.12
2023-03-07T22:57:07.553Z,4.28
2023-03-07T22:59:35.854Z,4.33
2023-03-07T23:02:05.249Z,4.46
2023-03-07T23:04:33.833Z,4.58
2023-03-07T23:07:04.748Z,4.60
2023-03-07T23:09:34.037Z,4.68
2023-03-07T23:12:02.379Z,4.41
2023-03-07T23:14:30.871Z,4.49
2023-03-07T23:16:58.932Z,4.54
2023-03-07T23:19:27.533Z,4.52
2023-03-07T23:21:56.629Z,4.34
2023-03-07T23:24:26.093Z,4.33
2023-03-07T23:26:54.569Z,4.43
2023-03-07T23:29:23.157Z,4.42
2023-03-07T23:31:52.446Z,4.47
2023-03-07T23:34:22.549Z,4.50
2023-03-07T23:36:51.564Z,4.50
2023-03-07T23:39:20.519Z,4.25
2023-03-07T23:41:50.105Z,4.29
2023-03-07T23:44:18.167Z,4.28
2023-03-07T23:46:47.062Z,4.41
2023-03-07T23:49:15.420Z,4.41
2023-03-07T23:51:44.675Z,4.37
2023-03-07T23:54:12.798Z,4.36
2023-03-07T23:56:41.015Z,4.44
2023-03-07T23:59:10.703Z,4.31
